sensor_id;sensor_type;location;lat;lon;timestamp;temperature;humidity
68235;DHT22;55052;52.056;5.296;2023-07-30T00:00:33;18.00;73.20
68235;DHT22;55052;52.056;5.296;2023-07-30T00:03:00;18.00;73.40
68235;DHT22;55052;52.056;5.296;2023-07-30T00:05:27;18.00;73.50
68235;DHT22;55052;52.056;5.296;2023-07-30T00:07:53;17.90;73.60
68235;DHT22;55052;52.056;5.296;2023-07-30T00:10:21;17.90;73.70
68235;DHT22;55052;52.056;5.296;2023-07-30T00:12:48;17.90;73.90
68235;DHT22;55052;52.056;5.296;2023-07-30T00:15:15;17.80;73.90
68235;DHT22;55052;52.056;5.296;2023-07-30T00:17:42;17.80;74.10
68235;DHT22;55052;52.056;5.296;2023-07-30T00:20:09;17.70;74.20
68235;DHT22;55052;52.056;5.296;2023-07-30T00:22:36;17.70;74.40
68235;DHT22;55052;52.056;5.296;2023-07-30T00:25:03;17.70;74.50
68235;DHT22;55052;52.056;5.296;2023-07-30T00:27:30;17.60;74.50
68235;DHT22;55052;52.056;5.296;2023-07-30T00:29:57;17.70;74.70
68235;DHT22;55052;52.056;5.296;2023-07-30T00:32:23;17.60;74.70
68235;DHT22;55052;52.056;5.296;2023-07-30T00:34:50;17.60;74.80
68235;DHT22;55052;52.056;5.296;2023-07-30T00:37:17;17.60;74.90
68235;DHT22;55052;52.056;5.296;2023-07-30T00:39:44;17.60;75.00
68235;DHT22;55052;52.056;5.296;2023-07-30T00:42:11;17.60;75.20
68235;DHT22;55052;52.056;5.296;2023-07-30T00:44:37;17.60;75.30
68235;DHT22;55052;52.056;5.296;2023-07-30T00:47:05;17.60;75.50
68235;DHT22;55052;52.056;5.296;2023-07-30T00:49:32;17.60;75.60
68235;DHT22;55052;52.056;5.296;2023-07-30T00:52:00;17.50;75.70
68235;DHT22;55052;52.056;5.296;2023-07-30T00:54:27;17.50;75.80
68235;DHT22;55052;52.056;5.296;2023-07-30T00:56:54;17.50;75.90
68235;DHT22;55052;52.056;5.296;2023-07-30T00:59:21;17.50;76.10
68235;DHT22;55052;52.056;5.296;2023-07-30T01:01:51;17.50;76.30
68235;DHT22;55052;52.056;5.296;2023-07-30T01:04:18;17.40;76.50
68235;DHT22;55052;52.056;5.296;2023-07-30T01:06:45;17.40;76.60
68235;DHT22;55052;52.056;5.296;2023-07-30T01:09:12;17.40;76.80
68235;DHT22;55052;52.056;5.296;2023-07-30T01:11:39;17.40;76.90
68235;DHT22;55052;52.056;5.296;2023-07-30T01:14:09;17.40;77.10
68235;DHT22;55052;52.056;5.296;2023-07-30T01:16:36;17.30;77.30
68235;DHT22;55052;52.056;5.296;2023-07-30T01:19:05;17.30;77.40
68235;DHT22;55052;52.056;5.296;2023-07-30T01:21:36;17.30;77.60
68235;DHT22;55052;52.056;5.296;2023-07-30T01:24:04;17.30;77.80
68235;DHT22;55052;52.056;5.296;2023-07-30T01:26:44;17.30;78.00
68235;DHT22;55052;52.056;5.296;2023-07-30T01:29:16;17.30;78.20
68235;DHT22;55052;52.056;5.296;2023-07-30T01:31:55;17.30;78.30
68235;DHT22;55052;52.056;5.296;2023-07-30T01:34:24;17.30;78.50
68235;DHT22;55052;52.056;5.296;2023-07-30T01:36:53;17.30;78.70
68235;DHT22;55052;52.056;5.296;2023-07-30T01:39:23;17.30;79.70
68235;DHT22;55052;52.056;5.296;2023-07-30T01:41:53;17.30;79.00
68235;DHT22;55052;52.056;5.296;2023-07-30T01:44:20;17.30;79.10
68235;DHT22;55052;52.056;5.296;2023-07-30T01:46:47;17.30;79.10
68235;DHT22;55052;52.056;5.296;2023-07-30T01:49:14;17.30;79.20
68235;DHT22;55052;52.056;5.296;2023-07-30T01:51:40;17.40;79.30
68235;DHT22;55052;52.056;5.296;2023-07-30T01:54:07;17.40;79.40
68235;DHT22;55052;52.056;5.296;2023-07-30T01:56:34;17.40;79.50
68235;DHT22;55052;52.056;5.296;2023-07-30T01:59:01;17.40;79.60
68235;DHT22;55052;52.056;5.296;2023-07-30T02:01:27;17.40;79.70
68235;DHT22;55052;52.056;5.296;2023-07-30T02:03:54;17.40;79.80
68235;DHT22;55052;52.056;5.296;2023-07-30T02:06:21;17.40;79.90
68235;DHT22;55052;52.056;5.296;2023-07-30T02:08:48;17.40;79.90
68235;DHT22;55052;52.056;5.296;2023-07-30T02:11:15;17.40;80.00
68235;DHT22;55052;52.056;5.296;2023-07-30T02:13:41;17.40;80.10
68235;DHT22;55052;52.056;5.296;2023-07-30T02:16:09;17.40;80.30
68235;DHT22;55052;52.056;5.296;2023-07-30T02:18:36;17.40;80.30
68235;DHT22;55052;52.056;5.296;2023-07-30T02:21:02;17.40;80.40
68235;DHT22;55052;52.056;5.296;2023-07-30T02:23:29;17.40;80.50
68235;DHT22;55052;52.056;5.296;2023-07-30T02:25:56;17.40;80.70
68235;DHT22;55052;52.056;5.296;2023-07-30T02:28:23;17.40;80.80
68235;DHT22;55052;52.056;5.296;2023-07-30T02:30:50;17.40;80.90
68235;DHT22;55052;52.056;5.296;2023-07-30T02:33:16;17.40;81.10
68235;DHT22;55052;52.056;5.296;2023-07-30T02:35:44;17.40;81.30
68235;DHT22;55052;52.056;5.296;2023-07-30T02:38:10;17.40;81.30
68235;DHT22;55052;52.056;5.296;2023-07-30T02:40:37;17.40;81.50
68235;DHT22;55052;52.056;5.296;2023-07-30T02:43:04;17.40;81.50
68235;DHT22;55052;52.056;5.296;2023-07-30T02:45:31;17.40;81.60
68235;DHT22;55052;52.056;5.296;2023-07-30T02:47:58;17.50;81.80
68235;DHT22;55052;52.056;5.296;2023-07-30T02:50:25;17.50;81.90
68235;DHT22;55052;52.056;5.296;2023-07-30T02:52:52;17.50;82.00
68235;DHT22;55052;52.056;5.296;2023-07-30T02:55:18;17.50;82.10
68235;DHT22;55052;52.056;5.296;2023-07-30T02:57:45;17.50;82.20
68235;DHT22;55052;52.056;5.296;2023-07-30T03:00:12;17.50;82.30
68235;DHT22;55052;52.056;5.296;2023-07-30T03:02:40;17.50;82.40
68235;DHT22;55052;52.056;5.296;2023-07-30T03:05:08;17.60;82.50
68235;DHT22;55052;52.056;5.296;2023-07-30T03:07:35;17.60;82.60
68235;DHT22;55052;52.056;5.296;2023-07-30T03:10:02;17.60;82.70
68235;DHT22;55052;52.056;5.296;2023-07-30T03:12:29;17.60;82.80
68235;DHT22;55052;52.056;5.296;2023-07-30T03:14:56;17.60;82.90
68235;DHT22;55052;52.056;5.296;2023-07-30T03:17:22;17.60;83.00
68235;DHT22;55052;52.056;5.296;2023-07-30T03:19:49;17.60;83.10
68235;DHT22;55052;52.056;5.296;2023-07-30T03:22:16;17.60;83.20
68235;DHT22;55052;52.056;5.296;2023-07-30T03:24:45;17.60;83.30
68235;DHT22;55052;52.056;5.296;2023-07-30T03:27:12;17.60;83.30
68235;DHT22;55052;52.056;5.296;2023-07-30T03:29:39;17.60;83.50
68235;DHT22;55052;52.056;5.296;2023-07-30T03:32:06;17.60;83.50
68235;DHT22;55052;52.056;5.296;2023-07-30T03:34:33;17.60;83.50
68235;DHT22;55052;52.056;5.296;2023-07-30T03:37:00;17.60;83.60
68235;DHT22;55052;52.056;5.296;2023-07-30T03:39:27;17.60;83.80
68235;DHT22;55052;52.056;5.296;2023-07-30T03:41:54;17.60;83.90
68235;DHT22;55052;52.056;5.296;2023-07-30T03:44:20;17.50;83.90
68235;DHT22;55052;52.056;5.296;2023-07-30T03:46:47;17.50;84.00
68235;DHT22;55052;52.056;5.296;2023-07-30T03:49:14;17.50;84.00
68235;DHT22;55052;52.056;5.296;2023-07-30T03:51:41;17.60;84.90
68235;DHT22;55052;52.056;5.296;2023-07-30T03:54:08;17.60;84.30
68235;DHT22;55052;52.056;5.296;2023-07-30T03:56:34;17.50;84.30
68235;DHT22;55052;52.056;5.296;2023-07-30T03:59:01;17.50;84.20
68235;DHT22;55052;52.056;5.296;2023-07-30T04:01:28;17.50;84.40
68235;DHT22;55052;52.056;5.296;2023-07-30T04:03:57;17.50;84.60
68235;DHT22;55052;52.056;5.296;2023-07-30T04:06:23;17.50;84.70
68235;DHT22;55052;52.056;5.296;2023-07-30T04:08:50;17.50;84.70
68235;DHT22;55052;52.056;5.296;2023-07-30T04:11:17;17.50;84.80
68235;DHT22;55052;52.056;5.296;2023-07-30T04:13:44;17.50;85.00
68235;DHT22;55052;52.056;5.296;2023-07-30T04:16:10;17.50;85.10
68235;DHT22;55052;52.056;5.296;2023-07-30T04:18:37;17.50;85.30
68235;DHT22;55052;52.056;5.296;2023-07-30T04:21:04;17.60;85.50
68235;DHT22;55052;52.056;5.296;2023-07-30T04:23:31;17.50;85.60
68235;DHT22;55052;52.056;5.296;2023-07-30T04:25:58;17.60;85.70
68235;DHT22;55052;52.056;5.296;2023-07-30T04:28:24;17.60;86.00
68235;DHT22;55052;52.056;5.296;2023-07-30T04:30:51;17.60;86.10
68235;DHT22;55052;52.056;5.296;2023-07-30T04:33:18;17.60;86.20
68235;DHT22;55052;52.056;5.296;2023-07-30T04:35:45;17.70;86.50
68235;DHT22;55052;52.056;5.296;2023-07-30T04:38:12;17.70;87.50
68235;DHT22;55052;52.056;5.296;2023-07-30T04:40:39;17.70;86.80
68235;DHT22;55052;52.056;5.296;2023-07-30T04:43:05;17.70;86.90
68235;DHT22;55052;52.056;5.296;2023-07-30T04:45:32;17.70;87.00
68235;DHT22;55052;52.056;5.296;2023-07-30T04:47:59;17.70;87.10
68235;DHT22;55052;52.056;5.296;2023-07-30T04:50:26;17.80;87.20
68235;DHT22;55052;52.056;5.296;2023-07-30T04:52:53;17.80;87.20
68235;DHT22;55052;52.056;5.296;2023-07-30T04:55:20;17.80;87.20
68235;DHT22;55052;52.056;5.296;2023-07-30T04:57:46;17.90;87.30
68235;DHT22;55052;52.056;5.296;2023-07-30T05:00:13;17.90;87.30
68235;DHT22;55052;52.056;5.296;2023-07-30T05:02:40;17.90;87.30
68235;DHT22;55052;52.056;5.296;2023-07-30T05:05:07;18.00;87.40
68235;DHT22;55052;52.056;5.296;2023-07-30T05:07:34;18.00;87.40
68235;DHT22;55052;52.056;5.296;2023-07-30T05:10:01;18.00;87.40
68235;DHT22;55052;52.056;5.296;2023-07-30T05:12:28;18.10;87.50
68235;DHT22;55052;52.056;5.296;2023-07-30T05:14:54;18.10;87.40
68235;DHT22;55052;52.056;5.296;2023-07-30T05:17:21;18.10;87.50
68235;DHT22;55052;52.056;5.296;2023-07-30T05:19:48;18.10;87.40
68235;DHT22;55052;52.056;5.296;2023-07-30T05:22:15;18.20;87.40
68235;DHT22;55052;52.056;5.296;2023-07-30T05:24:41;18.20;87.40
68235;DHT22;55052;52.056;5.296;2023-07-30T05:27:08;18.20;87.30
68235;DHT22;55052;52.056;5.296;2023-07-30T05:29:35;18.20;87.30
68235;DHT22;55052;52.056;5.296;2023-07-30T05:32:02;18.20;87.30
68235;DHT22;55052;52.056;5.296;2023-07-30T05:34:29;18.20;87.30
68235;DHT22;55052;52.056;5.296;2023-07-30T05:36:56;18.20;87.30
68235;DHT22;55052;52.056;5.296;2023-07-30T05:39:23;18.30;87.30
68235;DHT22;55052;52.056;5.296;2023-07-30T05:41:49;18.30;87.10
68235;DHT22;55052;52.056;5.296;2023-07-30T05:44:16;18.30;87.00
68235;DHT22;55052;52.056;5.296;2023-07-30T05:46:43;18.30;86.90
68235;DHT22;55052;52.056;5.296;2023-07-30T05:49:10;18.30;86.80
68235;DHT22;55052;52.056;5.296;2023-07-30T05:51:37;18.30;86.70
68235;DHT22;55052;52.056;5.296;2023-07-30T05:54:04;18.30;86.70
68235;DHT22;55052;52.056;5.296;2023-07-30T05:56:31;18.30;86.60
68235;DHT22;55052;52.056;5.296;2023-07-30T05:58:58;18.30;86.50
68235;DHT22;55052;52.056;5.296;2023-07-30T06:01:25;18.30;86.50
68235;DHT22;55052;52.056;5.296;2023-07-30T06:03:52;18.30;86.50
68235;DHT22;55052;52.056;5.296;2023-07-30T06:06:19;18.30;87.40
68235;DHT22;55052;52.056;5.296;2023-07-30T06:08:54;18.30;86.50
68235;DHT22;55052;52.056;5.296;2023-07-30T06:11:21;18.30;86.40
68235;DHT22;55052;52.056;5.296;2023-07-30T06:13:48;18.30;86.50
68235;DHT22;55052;52.056;5.296;2023-07-30T06:16:16;18.30;86.40
68235;DHT22;55052;52.056;5.296;2023-07-30T06:18:44;18.30;86.50
68235;DHT22;55052;52.056;5.296;2023-07-30T06:21:11;18.30;86.50
68235;DHT22;55052;52.056;5.296;2023-07-30T06:23:38;18.30;86.50
68235;DHT22;55052;52.056;5.296;2023-07-30T06:26:05;18.30;86.50
68235;DHT22;55052;52.056;5.296;2023-07-30T06:28:31;18.40;86.60
68235;DHT22;55052;52.056;5.296;2023-07-30T06:31:02;18.40;86.60
68235;DHT22;55052;52.056;5.296;2023-07-30T06:33:29;18.40;86.60
68235;DHT22;55052;52.056;5.296;2023-07-30T06:35:58;18.40;86.60
68235;DHT22;55052;52.056;5.296;2023-07-30T06:38:25;18.40;86.60
68235;DHT22;55052;52.056;5.296;2023-07-30T06:40:52;18.50;86.60
68235;DHT22;55052;52.056;5.296;2023-07-30T06:43:19;18.50;86.60
68235;DHT22;55052;52.056;5.296;2023-07-30T06:45:46;18.50;86.40
68235;DHT22;55052;52.056;5.296;2023-07-30T06:48:12;18.60;86.40
68235;DHT22;55052;52.056;5.296;2023-07-30T06:50:40;18.60;86.30
68235;DHT22;55052;52.056;5.296;2023-07-30T06:53:06;18.60;86.20
68235;DHT22;55052;52.056;5.296;2023-07-30T06:55:33;18.60;86.00
68235;DHT22;55052;52.056;5.296;2023-07-30T06:58:00;18.60;86.00
68235;DHT22;55052;52.056;5.296;2023-07-30T07:00:27;18.70;86.00
68235;DHT22;55052;52.056;5.296;2023-07-30T07:02:54;18.70;85.80
68235;DHT22;55052;52.056;5.296;2023-07-30T07:05:21;18.70;85.70
68235;DHT22;55052;52.056;5.296;2023-07-30T07:07:48;18.60;85.50
68235;DHT22;55052;52.056;5.296;2023-07-30T07:10:15;18.70;85.50
68235;DHT22;55052;52.056;5.296;2023-07-30T07:12:42;18.70;85.50
68235;DHT22;55052;52.056;5.296;2023-07-30T07:15:09;18.70;85.30
68235;DHT22;55052;52.056;5.296;2023-07-30T07:17:36;18.70;85.20
68235;DHT22;55052;52.056;5.296;2023-07-30T07:20:03;18.70;85.20
68235;DHT22;55052;52.056;5.296;2023-07-30T07:22:34;18.70;85.10
68235;DHT22;55052;52.056;5.296;2023-07-30T07:25:00;18.70;84.80
68235;DHT22;55052;52.056;5.296;2023-07-30T07:27:27;18.70;84.80
68235;DHT22;55052;52.056;5.296;2023-07-30T07:29:54;18.70;84.60
68235;DHT22;55052;52.056;5.296;2023-07-30T07:32:21;18.70;84.40
68235;DHT22;55052;52.056;5.296;2023-07-30T07:34:49;18.70;84.30
68235;DHT22;55052;52.056;5.296;2023-07-30T07:37:16;18.70;84.20
68235;DHT22;55052;52.056;5.296;2023-07-30T07:39:45;18.70;84.20
68235;DHT22;55052;52.056;5.296;2023-07-30T07:42:12;18.70;84.20
68235;DHT22;55052;52.056;5.296;2023-07-30T07:44:39;18.70;84.10
68235;DHT22;55052;52.056;5.296;2023-07-30T07:47:06;18.70;84.10
68235;DHT22;55052;52.056;5.296;2023-07-30T07:49:33;18.70;84.10
68235;DHT22;55052;52.056;5.296;2023-07-30T07:52:00;18.80;84.20
68235;DHT22;55052;52.056;5.296;2023-07-30T07:54:26;18.80;84.10
68235;DHT22;55052;52.056;5.296;2023-07-30T07:56:53;18.80;84.00
68235;DHT22;55052;52.056;5.296;2023-07-30T07:59:20;18.80;83.90
68235;DHT22;55052;52.056;5.296;2023-07-30T08:01:47;18.90;83.80
68235;DHT22;55052;52.056;5.296;2023-07-30T08:04:14;18.90;83.70
68235;DHT22;55052;52.056;5.296;2023-07-30T08:06:41;18.90;83.70
68235;DHT22;55052;52.056;5.296;2023-07-30T08:09:07;18.90;83.70
68235;DHT22;55052;52.056;5.296;2023-07-30T08:11:34;19.00;83.50
68235;DHT22;55052;52.056;5.296;2023-07-30T08:14:01;19.10;83.50
68235;DHT22;55052;52.056;5.296;2023-07-30T08:16:28;19.10;83.20
68235;DHT22;55052;52.056;5.296;2023-07-30T08:18:55;19.20;83.10
68235;DHT22;55052;52.056;5.296;2023-07-30T08:21:22;19.30;82.70
68235;DHT22;55052;52.056;5.296;2023-07-30T08:23:49;19.30;82.40
68235;DHT22;55052;52.056;5.296;2023-07-30T08:26:15;19.30;82.30
68235;DHT22;55052;52.056;5.296;2023-07-30T08:28:42;19.40;82.30
68235;DHT22;55052;52.056;5.296;2023-07-30T08:31:09;19.50;82.20
68235;DHT22;55052;52.056;5.296;2023-07-30T08:33:36;19.60;82.00
68235;DHT22;55052;52.056;5.296;2023-07-30T08:36:03;19.60;81.30
68235;DHT22;55052;52.056;5.296;2023-07-30T08:38:29;19.70;80.80
68235;DHT22;55052;52.056;5.296;2023-07-30T08:40:57;19.80;80.30
68235;DHT22;55052;52.056;5.296;2023-07-30T08:43:24;19.80;79.90
68235;DHT22;55052;52.056;5.296;2023-07-30T08:45:50;19.90;79.70
68235;DHT22;55052;52.056;5.296;2023-07-30T08:48:17;19.90;79.50
68235;DHT22;55052;52.056;5.296;2023-07-30T08:50:45;19.90;79.40
68235;DHT22;55052;52.056;5.296;2023-07-30T08:53:12;19.90;79.20
68235;DHT22;55052;52.056;5.296;2023-07-30T08:55:40;19.90;79.10
68235;DHT22;55052;52.056;5.296;2023-07-30T08:58:09;19.90;79.10
68235;DHT22;55052;52.056;5.296;2023-07-30T09:00:38;20.00;79.10
68235;DHT22;55052;52.056;5.296;2023-07-30T09:03:07;20.00;78.60
68235;DHT22;55052;52.056;5.296;2023-07-30T09:05:35;19.90;78.70
68235;DHT22;55052;52.056;5.296;2023-07-30T09:08:02;20.00;78.50
68235;DHT22;55052;52.056;5.296;2023-07-30T09:10:29;20.00;78.40
68235;DHT22;55052;52.056;5.296;2023-07-30T09:12:56;20.00;78.10
68235;DHT22;55052;52.056;5.296;2023-07-30T09:15:34;20.10;77.90
68235;DHT22;55052;52.056;5.296;2023-07-30T09:18:01;20.10;77.70
68235;DHT22;55052;52.056;5.296;2023-07-30T09:20:40;20.10;77.40
68235;DHT22;55052;52.056;5.296;2023-07-30T09:23:08;20.10;77.30
68235;DHT22;55052;52.056;5.296;2023-07-30T09:25:36;20.10;77.30
68235;DHT22;55052;52.056;5.296;2023-07-30T09:28:05;20.10;77.30
68235;DHT22;55052;52.056;5.296;2023-07-30T09:30:33;20.10;77.10
68235;DHT22;55052;52.056;5.296;2023-07-30T09:33:00;20.10;77.10
68235;DHT22;55052;52.056;5.296;2023-07-30T09:35:27;20.20;77.00
68235;DHT22;55052;52.056;5.296;2023-07-30T09:38:03;20.20;78.00
68235;DHT22;55052;52.056;5.296;2023-07-30T09:40:32;20.20;76.90
68235;DHT22;55052;52.056;5.296;2023-07-30T09:42:59;20.20;76.70
68235;DHT22;55052;52.056;5.296;2023-07-30T09:45:26;20.30;76.50
68235;DHT22;55052;52.056;5.296;2023-07-30T09:47:55;20.30;75.90
68235;DHT22;55052;52.056;5.296;2023-07-30T09:50:24;20.40;75.60
68235;DHT22;55052;52.056;5.296;2023-07-30T09:52:51;20.40;75.60
68235;DHT22;55052;52.056;5.296;2023-07-30T09:55:18;20.50;75.30
68235;DHT22;55052;52.056;5.296;2023-07-30T09:57:47;20.60;75.00
68235;DHT22;55052;52.056;5.296;2023-07-30T10:00:14;20.60;74.50
68235;DHT22;55052;52.056;5.296;2023-07-30T10:02:46;20.60;73.80
68235;DHT22;55052;52.056;5.296;2023-07-30T10:05:18;20.70;72.80
68235;DHT22;55052;52.056;5.296;2023-07-30T10:07:58;20.70;72.70
68235;DHT22;55052;52.056;5.296;2023-07-30T10:10:27;20.70;72.40
68235;DHT22;55052;52.056;5.296;2023-07-30T10:12:56;20.70;72.40
68235;DHT22;55052;52.056;5.296;2023-07-30T10:15:25;20.70;72.40
68235;DHT22;55052;52.056;5.296;2023-07-30T10:17:52;20.80;72.10
68235;DHT22;55052;52.056;5.296;2023-07-30T10:20:24;20.90;72.00
68235;DHT22;55052;52.056;5.296;2023-07-30T10:22:53;21.00;71.10
68235;DHT22;55052;52.056;5.296;2023-07-30T10:25:22;21.10;70.00
68235;DHT22;55052;52.056;5.296;2023-07-30T10:27:50;21.10;69.60
68235;DHT22;55052;52.056;5.296;2023-07-30T10:30:19;21.20;69.10
68235;DHT22;55052;52.056;5.296;2023-07-30T10:35:44;21.40;67.20
68235;DHT22;55052;52.056;5.296;2023-07-30T10:43:50;21.50;65.50
68235;DHT22;55052;52.056;5.296;2023-07-30T10:46:18;21.40;65.10
68235;DHT22;55052;52.056;5.296;2023-07-30T10:48:47;21.40;65.40
68235;DHT22;55052;52.056;5.296;2023-07-30T10:51:16;21.40;65.00
68235;DHT22;55052;52.056;5.296;2023-07-30T10:53:47;21.30;64.90
68235;DHT22;55052;52.056;5.296;2023-07-30T10:56:17;21.30;65.20
68235;DHT22;55052;52.056;5.296;2023-07-30T10:58:49;21.30;65.40
68235;DHT22;55052;52.056;5.296;2023-07-30T11:01:17;21.30;65.20
68235;DHT22;55052;52.056;5.296;2023-07-30T11:03:49;21.30;65.10
68235;DHT22;55052;52.056;5.296;2023-07-30T11:06:22;21.40;65.00
68235;DHT22;55052;52.056;5.296;2023-07-30T11:08:49;21.40;64.80
68235;DHT22;55052;52.056;5.296;2023-07-30T11:11:16;21.40;65.00
68235;DHT22;55052;52.056;5.296;2023-07-30T11:13:45;21.40;64.90
68235;DHT22;55052;52.056;5.296;2023-07-30T11:16:15;21.50;64.70
68235;DHT22;55052;52.056;5.296;2023-07-30T11:18:43;21.50;64.30
68235;DHT22;55052;52.056;5.296;2023-07-30T11:21:12;21.50;64.40
68235;DHT22;55052;52.056;5.296;2023-07-30T11:23:41;21.50;64.10
68235;DHT22;55052;52.056;5.296;2023-07-30T11:26:18;21.60;63.60
68235;DHT22;55052;52.056;5.296;2023-07-30T11:28:45;21.60;63.10
68235;DHT22;55052;52.056;5.296;2023-07-30T11:31:18;21.60;63.40
68235;DHT22;55052;52.056;5.296;2023-07-30T11:33:49;21.60;63.10
68235;DHT22;55052;52.056;5.296;2023-07-30T11:36:20;21.50;63.40
68235;DHT22;55052;52.056;5.296;2023-07-30T11:38:51;21.60;63.50
68235;DHT22;55052;52.056;5.296;2023-07-30T11:41:23;21.60;63.20
68235;DHT22;55052;52.056;5.296;2023-07-30T11:43:50;21.60;62.70
68235;DHT22;55052;52.056;5.296;2023-07-30T11:46:18;21.60;62.60
68235;DHT22;55052;52.056;5.296;2023-07-30T11:48:48;21.60;62.90
68235;DHT22;55052;52.056;5.296;2023-07-30T11:51:26;21.70;63.00
68235;DHT22;55052;52.056;5.296;2023-07-30T11:53:58;21.70;63.20
68235;DHT22;55052;52.056;5.296;2023-07-30T11:56:30;21.80;63.30
68235;DHT22;55052;52.056;5.296;2023-07-30T11:58:59;21.80;63.30
68235;DHT22;55052;52.056;5.296;2023-07-30T12:01:30;21.90;63.30
68235;DHT22;55052;52.056;5.296;2023-07-30T12:04:00;21.90;63.40
68235;DHT22;55052;52.056;5.296;2023-07-30T12:09:13;22.10;62.60
68235;DHT22;55052;52.056;5.296;2023-07-30T12:14:16;22.20;61.80
68235;DHT22;55052;52.056;5.296;2023-07-30T12:16:42;22.20;61.90
68235;DHT22;55052;52.056;5.296;2023-07-30T12:19:09;22.30;62.10
68235;DHT22;55052;52.056;5.296;2023-07-30T12:21:36;22.40;61.90
68235;DHT22;55052;52.056;5.296;2023-07-30T12:24:05;22.40;61.60
68235;DHT22;55052;52.056;5.296;2023-07-30T12:26:32;22.50;61.80
68235;DHT22;55052;52.056;5.296;2023-07-30T12:28:59;22.50;62.80
68235;DHT22;55052;52.056;5.296;2023-07-30T12:31:26;22.60;62.30
68235;DHT22;55052;52.056;5.296;2023-07-30T12:33:53;22.60;62.30
68235;DHT22;55052;52.056;5.296;2023-07-30T12:36:19;22.70;61.80
68235;DHT22;55052;52.056;5.296;2023-07-30T12:38:46;22.80;61.40
68235;DHT22;55052;52.056;5.296;2023-07-30T12:41:13;22.90;61.30
68235;DHT22;55052;52.056;5.296;2023-07-30T12:43:40;22.90;60.90
68235;DHT22;55052;52.056;5.296;2023-07-30T12:46:07;22.90;60.40
68235;DHT22;55052;52.056;5.296;2023-07-30T12:48:34;23.00;60.00
68235;DHT22;55052;52.056;5.296;2023-07-30T12:51:00;23.00;60.00
68235;DHT22;55052;52.056;5.296;2023-07-30T12:53:27;23.00;60.20
68235;DHT22;55052;52.056;5.296;2023-07-30T12:55:54;23.00;60.70
68235;DHT22;55052;52.056;5.296;2023-07-30T12:58:21;23.00;60.70
68235;DHT22;55052;52.056;5.296;2023-07-30T13:00:48;23.10;60.90
68235;DHT22;55052;52.056;5.296;2023-07-30T13:03:14;23.10;60.80
68235;DHT22;55052;52.056;5.296;2023-07-30T13:05:41;23.20;60.40
68235;DHT22;55052;52.056;5.296;2023-07-30T13:08:08;23.30;60.10
68235;DHT22;55052;52.056;5.296;2023-07-30T13:10:35;23.30;59.80
68235;DHT22;55052;52.056;5.296;2023-07-30T13:13:02;23.40;59.90
68235;DHT22;55052;52.056;5.296;2023-07-30T13:15:29;23.40;59.60
68235;DHT22;55052;52.056;5.296;2023-07-30T13:17:56;23.40;59.70
68235;DHT22;55052;52.056;5.296;2023-07-30T13:20:22;23.50;59.00
68235;DHT22;55052;52.056;5.296;2023-07-30T13:22:52;23.50;57.60
68235;DHT22;55052;52.056;5.296;2023-07-30T13:25:20;23.50;58.10
68235;DHT22;55052;52.056;5.296;2023-07-30T13:27:47;23.50;56.70
68235;DHT22;55052;52.056;5.296;2023-07-30T13:30:14;23.50;56.30
68235;DHT22;55052;52.056;5.296;2023-07-30T13:32:41;23.50;55.70
68235;DHT22;55052;52.056;5.296;2023-07-30T13:35:08;23.50;55.20
68235;DHT22;55052;52.056;5.296;2023-07-30T13:37:35;23.40;54.90
68235;DHT22;55052;52.056;5.296;2023-07-30T13:40:01;23.30;54.80
68235;DHT22;55052;52.056;5.296;2023-07-30T13:42:28;23.30;55.00
68235;DHT22;55052;52.056;5.296;2023-07-30T13:44:55;23.30;54.60
68235;DHT22;55052;52.056;5.296;2023-07-30T13:47:22;23.30;54.70
68235;DHT22;55052;52.056;5.296;2023-07-30T13:49:49;23.30;55.00
68235;DHT22;55052;52.056;5.296;2023-07-30T13:52:16;23.40;55.40
68235;DHT22;55052;52.056;5.296;2023-07-30T13:54:42;23.50;55.60
68235;DHT22;55052;52.056;5.296;2023-07-30T13:57:11;23.70;55.50
68235;DHT22;55052;52.056;5.296;2023-07-30T13:59:38;23.80;55.30
68235;DHT22;55052;52.056;5.296;2023-07-30T14:02:06;23.90;55.30
68235;DHT22;55052;52.056;5.296;2023-07-30T14:04:33;23.90;55.00
68235;DHT22;55052;52.056;5.296;2023-07-30T14:07:00;23.90;54.90
68235;DHT22;55052;52.056;5.296;2023-07-30T14:09:27;23.90;54.90
68235;DHT22;55052;52.056;5.296;2023-07-30T14:11:59;23.80;54.90
68235;DHT22;55052;52.056;5.296;2023-07-30T14:14:26;23.70;55.00
68235;DHT22;55052;52.056;5.296;2023-07-30T14:16:54;23.60;54.60
68235;DHT22;55052;52.056;5.296;2023-07-30T14:19:22;23.60;54.10
68235;DHT22;55052;52.056;5.296;2023-07-30T14:21:48;23.40;54.30
68235;DHT22;55052;52.056;5.296;2023-07-30T14:24:15;23.30;55.00
68235;DHT22;55052;52.056;5.296;2023-07-30T14:26:42;23.20;55.60
68235;DHT22;55052;52.056;5.296;2023-07-30T14:29:09;23.00;56.30
68235;DHT22;55052;52.056;5.296;2023-07-30T14:31:36;22.90;56.70
68235;DHT22;55052;52.056;5.296;2023-07-30T14:34:06;22.90;56.80
68235;DHT22;55052;52.056;5.296;2023-07-30T14:36:33;22.80;57.40
68235;DHT22;55052;52.056;5.296;2023-07-30T14:39:00;22.70;58.10
68235;DHT22;55052;52.056;5.296;2023-07-30T14:41:27;22.60;58.10
68235;DHT22;55052;52.056;5.296;2023-07-30T14:43:53;22.50;58.00
68235;DHT22;55052;52.056;5.296;2023-07-30T14:46:20;22.50;58.50
68235;DHT22;55052;52.056;5.296;2023-07-30T14:48:48;22.40;58.80
68235;DHT22;55052;52.056;5.296;2023-07-30T14:51:15;22.40;58.90
68235;DHT22;55052;52.056;5.296;2023-07-30T14:53:42;22.50;58.90
68235;DHT22;55052;52.056;5.296;2023-07-30T14:56:09;22.50;59.00
68235;DHT22;55052;52.056;5.296;2023-07-30T14:58:36;22.60;59.10
68235;DHT22;55052;52.056;5.296;2023-07-30T15:01:03;22.60;58.20
68235;DHT22;55052;52.056;5.296;2023-07-30T15:03:30;22.60;57.40
68235;DHT22;55052;52.056;5.296;2023-07-30T15:05:57;22.60;56.80
68235;DHT22;55052;52.056;5.296;2023-07-30T15:08:24;22.60;56.60
68235;DHT22;55052;52.056;5.296;2023-07-30T15:10:50;22.50;56.80
68235;DHT22;55052;52.056;5.296;2023-07-30T15:13:17;22.50;57.10
68235;DHT22;55052;52.056;5.296;2023-07-30T15:15:44;22.50;57.40
68235;DHT22;55052;52.056;5.296;2023-07-30T15:18:11;22.50;57.90
68235;DHT22;55052;52.056;5.296;2023-07-30T15:20:38;22.50;58.20
68235;DHT22;55052;52.056;5.296;2023-07-30T15:23:05;22.50;59.10
68235;DHT22;55052;52.056;5.296;2023-07-30T15:25:32;22.50;58.10
68235;DHT22;55052;52.056;5.296;2023-07-30T15:27:59;22.50;58.10
68235;DHT22;55052;52.056;5.296;2023-07-30T15:30:27;22.50;58.20
68235;DHT22;55052;52.056;5.296;2023-07-30T15:32:54;22.50;57.90
68235;DHT22;55052;52.056;5.296;2023-07-30T15:35:21;22.50;57.60
68235;DHT22;55052;52.056;5.296;2023-07-30T15:37:48;22.40;57.30
68235;DHT22;55052;52.056;5.296;2023-07-30T15:40:14;22.40;57.50
68235;DHT22;55052;52.056;5.296;2023-07-30T15:42:41;22.40;57.50
68235;DHT22;55052;52.056;5.296;2023-07-30T15:45:09;22.50;57.30